createdAt,value
2022-12-15T00:01:59.729Z,61.14
2022-12-15T00:04:45.223Z,60.99
2022-12-15T00:07:30.445Z,61.46
2022-12-15T00:10:15.905Z,61.11
2022-12-15T00:13:01.034Z,61.31
2022-12-15T00:15:46.422Z,61.21
2022-12-15T00:18:31.864Z,61.05
2022-12-15T00:21:18.099Z,61.41
2022-12-15T00:24:03.420Z,61.66
2022-12-15T00:26:48.714Z,61.37
2022-12-15T00:29:34.043Z,62.02
2022-12-15T00:32:19.424Z,62.33
2022-12-15T00:35:04.804Z,62.33
2022-12-15T00:37:50.097Z,62.20
2022-12-15T00:40:17.535Z,61.96
2022-12-15T00:42:47.754Z,61.78
2022-12-15T00:45:16.545Z,61.37
2022-12-15T00:47:43.211Z,61.82
2022-12-15T00:50:28.715Z,62.11
2022-12-15T00:53:14.032Z,62.12
2022-12-15T00:55:59.446Z,61.74
2022-12-15T00:58:44.798Z,61.58
2022-12-15T01:01:30.396Z,61.37
2022-12-15T01:04:15.681Z,60.96
2022-12-15T01:07:00.827Z,61.17
2022-12-15T01:09:46.251Z,61.23
2022-12-15T01:12:31.720Z,61.57
2022-12-15T01:15:17.117Z,61.44
2022-12-15T01:18:02.438Z,61.58
2022-12-15T01:20:32.663Z,61.02
2022-12-15T01:22:59.529Z,60.87
2022-12-15T01:25:27.443Z,61.01
2022-12-15T01:27:54.187Z,61.13
2022-12-15T01:30:23.679Z,61.14
2022-12-15T01:32:50.389Z,61.13
2022-12-15T01:35:17.616Z,61.30
2022-12-15T01:37:45.193Z,61.60
2022-12-15T01:40:33.803Z,61.75
2022-12-15T01:43:01.068Z,61.25
2022-12-15T01:45:30.683Z,61.52
2022-12-15T01:48:11.991Z,62.07
2022-12-15T01:50:53.523Z,61.46
2022-12-15T01:53:20.217Z,61.45
2022-12-15T01:55:48.059Z,61.16
2022-12-15T01:58:18.553Z,61.23
2022-12-15T02:00:45.327Z,61.21
2022-12-15T02:03:13.145Z,61.31
2022-12-15T02:05:41.220Z,61.22
2022-12-15T02:08:09.453Z,61.18
2022-12-15T02:10:57.447Z,61.40
2022-12-15T02:13:53.133Z,61.36
2022-12-15T02:16:38.536Z,61.41
2022-12-15T02:19:20.536Z,61.49
2022-12-15T02:22:05.508Z,61.73
2022-12-15T02:24:49.823Z,62.09
2022-12-15T02:27:43.119Z,62.12
2022-12-15T02:30:15.602Z,61.89
2022-12-15T02:32:58.903Z,61.84
2022-12-15T02:35:59.279Z,61.76
2022-12-15T02:38:41.429Z,61.88
2022-12-15T02:41:34.120Z,61.28
2022-12-15T02:44:11.296Z,61.46
2022-12-15T02:46:54.123Z,60.89
2022-12-15T02:49:39.828Z,61.01
2022-12-15T02:52:37.149Z,60.98
2022-12-15T02:55:19.771Z,61.17
2022-12-15T02:58:00.790Z,61.17
2022-12-15T03:00:30.379Z,61.05
2022-12-15T03:02:57.221Z,61.13
2022-12-15T03:05:25.067Z,60.77
2022-12-15T03:07:54.156Z,60.70
2022-12-15T03:10:24.395Z,60.95
2022-12-15T03:12:52.012Z,61.36
2022-12-15T03:15:19.522Z,60.95
2022-12-15T03:17:46.381Z,61.18
2022-12-15T03:20:13.321Z,61.23
2022-12-15T03:22:40.242Z,61.14
2022-12-15T03:25:07.234Z,61.45
2022-12-15T03:27:35.041Z,61.67
2022-12-15T03:30:01.869Z,61.74
2022-12-15T03:32:29.687Z,61.42
2022-12-15T03:34:59.002Z,61.46
2022-12-15T03:37:25.642Z,62.21
2022-12-15T03:39:52.199Z,61.79
2022-12-15T03:42:38.822Z,61.85
2022-12-15T03:45:06.057Z,62.43
2022-12-15T03:47:32.669Z,61.99
2022-12-15T03:49:59.349Z,62.45
2022-12-15T03:52:26.012Z,61.93
2022-12-15T03:54:52.697Z,62.11
2022-12-15T03:57:19.363Z,62.23
2022-12-15T03:59:46.003Z,62.44
2022-12-15T04:02:12.780Z,62.08
2022-12-15T04:04:39.664Z,62.23
2022-12-15T04:07:06.301Z,62.09
2022-12-15T04:09:32.992Z,62.37
2022-12-15T04:11:59.619Z,62.20
2022-12-15T04:14:26.258Z,61.77
2022-12-15T04:16:52.897Z,61.87
2022-12-15T04:19:38.342Z,61.78
2022-12-15T04:22:05.084Z,62.34
2022-12-15T04:24:50.424Z,61.91
2022-12-15T04:27:36.403Z,62.20
2022-12-15T04:30:21.889Z,62.32
2022-12-15T04:33:07.066Z,61.87
2022-12-15T04:35:53.543Z,61.61
2022-12-15T04:38:43.917Z,61.53
2022-12-15T04:41:37.928Z,61.35
2022-12-15T04:44:24.342Z,61.32
2022-12-15T04:47:09.924Z,61.15
2022-12-15T04:49:55.342Z,60.67
2022-12-15T04:52:40.660Z,60.76
2022-12-15T04:55:26.627Z,60.84
2022-12-15T04:58:12.208Z,60.67
2022-12-15T05:00:57.514Z,60.35
2022-12-15T05:03:42.971Z,60.27
2022-12-15T05:06:28.382Z,60.32
2022-12-15T05:09:13.795Z,60.13
2022-12-15T05:11:59.035Z,60.35
2022-12-15T05:14:44.377Z,60.56
2022-12-15T05:17:29.831Z,60.76
2022-12-15T05:20:15.131Z,60.91
2022-12-15T05:23:00.568Z,61.36
2022-12-15T05:25:46.085Z,61.43
2022-12-15T05:28:31.503Z,61.44
2022-12-15T05:31:16.867Z,61.02
2022-12-15T05:33:43.655Z,60.98
2022-12-15T05:36:10.384Z,60.51
2022-12-15T05:38:37.049Z,60.93
2022-12-15T05:41:03.726Z,60.68
2022-12-15T05:43:30.977Z,60.86
2022-12-15T05:46:04.116Z,60.80
2022-12-15T05:48:30.875Z,60.57
2022-12-15T05:50:57.484Z,60.33
2022-12-15T05:53:24.121Z,60.68
2022-12-15T05:55:50.758Z,60.14
2022-12-15T05:58:17.359Z,60.38
2022-12-15T06:00:43.966Z,60.54
2022-12-15T06:03:10.638Z,60.71
2022-12-15T06:05:37.434Z,60.58
2022-12-15T06:08:04.237Z,60.30
2022-12-15T06:10:30.917Z,60.17
2022-12-15T06:12:57.524Z,60.41
2022-12-15T06:15:24.192Z,60.43
2022-12-15T06:17:53.352Z,60.13
2022-12-15T06:20:20.377Z,60.05
2022-12-15T06:22:50.048Z,60.30
2022-12-15T06:25:17.690Z,59.77
2022-12-15T06:27:44.294Z,60.12
2022-12-15T06:30:11.267Z,60.53
2022-12-15T06:32:37.908Z,60.97
2022-12-15T06:35:04.972Z,61.27
2022-12-15T06:37:31.783Z,61.27
2022-12-15T06:39:58.809Z,60.85
2022-12-15T06:42:25.566Z,61.21
2022-12-15T06:44:52.367Z,61.46
2022-12-15T06:47:19.056Z,61.45
2022-12-15T06:49:45.829Z,62.25
2022-12-15T06:52:12.610Z,62.67
2022-12-15T06:54:39.261Z,62.68
2022-12-15T06:57:05.870Z,62.62
2022-12-15T06:59:32.535Z,62.43
2022-12-15T07:02:00.590Z,62.42
2022-12-15T07:04:27.496Z,62.34
2022-12-15T07:06:54.211Z,63.21
2022-12-15T07:09:20.973Z,63.11
2022-12-15T07:11:50.263Z,62.87
2022-12-15T07:14:17.021Z,62.84
2022-12-15T07:16:43.756Z,62.73
2022-12-15T07:19:14.041Z,62.57
2022-12-15T07:21:41.494Z,62.40
2022-12-15T07:24:10.985Z,62.33
2022-12-15T07:26:37.676Z,61.85
2022-12-15T07:29:04.615Z,61.66
2022-12-15T07:31:31.997Z,61.63
2022-12-15T07:33:59.251Z,61.79
2022-12-15T07:36:27.536Z,61.57
2022-12-15T07:39:00.857Z,61.25
2022-12-15T07:41:28.602Z,61.18
2022-12-15T07:43:55.479Z,61.46
2022-12-15T07:46:23.888Z,61.29
2022-12-15T07:48:51.206Z,61.43
2022-12-15T07:51:20.147Z,61.19
2022-12-15T07:53:49.835Z,60.62
2022-12-15T07:56:17.139Z,60.06
2022-12-15T07:58:44.214Z,60.19
2022-12-15T08:01:13.355Z,59.61
2022-12-15T08:03:40.955Z,59.29
2022-12-15T08:06:12.878Z,59.45
2022-12-15T08:08:40.543Z,58.47
2022-12-15T08:11:09.234Z,58.31
2022-12-15T08:16:23.956Z,57.15
2022-12-15T08:18:50.711Z,56.86
2022-12-15T08:21:17.750Z,56.17
2022-12-15T08:23:44.899Z,56.40
2022-12-15T08:26:14.445Z,55.73
2022-12-15T08:28:42.093Z,55.39
2022-12-15T08:31:20.226Z,55.06
2022-12-15T08:33:48.001Z,54.85
2022-12-15T08:36:17.188Z,54.39
2022-12-15T08:38:45.493Z,53.75
2022-12-15T08:41:24.088Z,53.71
2022-12-15T08:43:51.310Z,53.55
2022-12-15T08:46:20.127Z,54.65
2022-12-15T08:48:47.363Z,54.78
2022-12-15T08:51:14.684Z,54.59
2022-12-15T08:53:41.710Z,54.34
2022-12-15T08:56:15.682Z,54.19
2022-12-15T08:58:43.359Z,53.40
2022-12-15T09:01:22.449Z,52.59
2022-12-15T09:03:51.830Z,52.92
2022-12-15T09:06:21.508Z,52.62
2022-12-15T09:08:50.574Z,52.66
2022-12-15T09:11:18.028Z,52.42
2022-12-15T09:13:44.726Z,53.25
2022-12-15T09:16:15.293Z,53.20
2022-12-15T09:18:44.088Z,54.15
2022-12-15T09:21:11.788Z,54.09
2022-12-15T09:23:39.281Z,53.72
2022-12-15T09:26:11.627Z,54.17
2022-12-15T09:28:38.969Z,54.22
2022-12-15T09:31:08.354Z,54.40
2022-12-15T09:33:36.005Z,54.67
2022-12-15T09:36:04.573Z,55.34
2022-12-15T09:38:34.190Z,55.62
2022-12-15T09:41:09.522Z,55.50
2022-12-15T09:43:46.950Z,54.75
2022-12-15T09:46:35.852Z,55.55
2022-12-15T09:49:11.353Z,55.30
2022-12-15T09:51:53.307Z,54.94
2022-12-15T09:54:22.748Z,55.21
2022-12-15T09:56:58.334Z,55.04
2022-12-15T09:59:33.291Z,55.59
2022-12-15T10:02:18.332Z,55.21
2022-12-15T10:04:57.192Z,55.23
2022-12-15T10:07:36.769Z,55.08
2022-12-15T10:10:24.667Z,55.02
2022-12-15T10:13:01.769Z,55.00
2022-12-15T10:15:44.680Z,53.23
2022-12-15T10:18:22.348Z,53.50
2022-12-15T10:20:53.960Z,52.64
2022-12-15T10:23:21.348Z,53.37
2022-12-15T10:25:55.327Z,52.05
2022-12-15T10:28:28.715Z,52.33
2022-12-15T10:31:00.411Z,52.21
2022-12-15T10:33:37.743Z,50.75
2022-12-15T10:36:13.236Z,48.33
2022-12-15T10:38:45.333Z,43.93
2022-12-15T10:41:14.335Z,40.17
2022-12-15T10:43:43.722Z,37.47
2022-12-15T10:46:24.956Z,32.99
2022-12-15T10:49:00.354Z,31.23
2022-12-15T10:51:32.312Z,30.84
2022-12-15T10:54:03.275Z,31.58
2022-12-15T10:56:33.955Z,33.46
2022-12-15T10:59:20.439Z,33.67
2022-12-15T11:01:47.320Z,35.19
2022-12-15T11:04:40.364Z,35.81
2022-12-15T11:07:13.732Z,35.64
2022-12-15T11:09:40.548Z,35.71
2022-12-15T11:12:37.521Z,35.74
2022-12-15T11:15:24.159Z,35.73
2022-12-15T11:18:01.599Z,36.55
2022-12-15T11:20:35.080Z,36.07
2022-12-15T11:23:13.938Z,35.31
2022-12-15T11:25:46.058Z,35.74
2022-12-15T11:28:20.057Z,36.63
2022-12-15T11:31:03.866Z,38.22
2022-12-15T11:33:31.129Z,40.14
2022-12-15T11:36:26.214Z,40.99
2022-12-15T11:39:01.826Z,42.27
2022-12-15T11:41:45.086Z,40.87
2022-12-15T11:44:23.689Z,41.00
2022-12-15T11:47:09.854Z,39.01
2022-12-15T11:49:58.601Z,34.55
2022-12-15T11:52:46.792Z,32.33
2022-12-15T11:55:31.082Z,32.60
2022-12-15T11:58:13.201Z,34.60
2022-12-15T12:00:44.657Z,36.90
2022-12-15T12:03:30.565Z,38.62
2022-12-15T12:06:33.170Z,38.72
2022-12-15T12:09:06.813Z,36.65
2022-12-15T12:11:53.969Z,36.22
2022-12-15T12:14:43.709Z,37.77
2022-12-15T12:17:16.996Z,38.76
2022-12-15T12:19:50.945Z,41.49
2022-12-15T12:22:20.443Z,43.71
2022-12-15T12:25:21.380Z,44.43
2022-12-15T12:28:15.467Z,44.80
2022-12-15T12:30:48.717Z,44.78
2022-12-15T12:33:41.236Z,44.52
2022-12-15T12:36:12.979Z,44.13
2022-12-15T12:38:50.603Z,45.99
2022-12-15T12:41:34.063Z,47.20
2022-12-15T12:44:09.087Z,48.43
2022-12-15T12:46:51.023Z,48.90
2022-12-15T12:49:27.153Z,49.62
2022-12-15T12:52:00.497Z,49.70
2022-12-15T12:54:36.593Z,50.04
2022-12-15T12:57:12.374Z,49.40
2022-12-15T12:59:48.887Z,49.02
2022-12-15T13:02:22.108Z,49.80
2022-12-15T13:04:57.789Z,49.67
2022-12-15T13:07:38.612Z,49.92
2022-12-15T13:10:08.079Z,49.97
2022-12-15T13:12:52.075Z,50.92
2022-12-15T13:15:31.216Z,50.96
2022-12-15T13:18:24.596Z,50.60
2022-12-15T13:20:56.041Z,51.81
2022-12-15T13:23:25.444Z,50.94
2022-12-15T13:25:57.869Z,51.06
2022-12-15T13:28:34.875Z,51.92
2022-12-15T13:31:16.904Z,51.15
2022-12-15T13:33:49.614Z,51.52
2022-12-15T13:36:38.186Z,51.69
2022-12-15T13:39:17.237Z,51.09
2022-12-15T13:42:07.370Z,51.09
2022-12-15T13:44:32.198Z,51.61
2022-12-15T13:47:19.048Z,52.30
2022-12-15T13:50:03.181Z,52.19
2022-12-15T13:53:16.510Z,52.50
2022-12-15T13:58:18.689Z,52.79
2022-12-15T14:00:52.100Z,52.77
2022-12-15T14:03:19.779Z,52.51
2022-12-15T14:05:53.340Z,51.89
2022-12-15T14:08:22.984Z,52.21
2022-12-15T14:11:07.092Z,52.67
2022-12-15T14:13:46.012Z,52.21
2022-12-15T14:16:21.788Z,52.25
2022-12-15T14:19:13.324Z,52.88
2022-12-15T14:21:40.445Z,52.83
2022-12-15T14:24:37.971Z,52.13
2022-12-15T14:27:05.964Z,53.12
2022-12-15T14:29:32.637Z,52.17
2022-12-15T14:32:00.226Z,52.78
2022-12-15T14:34:33.162Z,52.94
2022-12-15T14:37:03.374Z,53.11
2022-12-15T14:39:37.344Z,53.76
2022-12-15T14:42:07.425Z,53.65
2022-12-15T14:44:39.213Z,54.28
2022-12-15T14:47:16.514Z,54.50
2022-12-15T14:49:45.442Z,54.68
2022-12-15T14:52:27.123Z,55.13
2022-12-15T14:54:57.302Z,55.44
2022-12-15T14:57:40.420Z,55.74
2022-12-15T15:00:25.844Z,56.19
2022-12-15T15:05:59.891Z,55.69
2022-12-15T15:08:29.376Z,56.25
2022-12-15T15:10:59.520Z,56.35
2022-12-15T15:13:40.017Z,57.14
2022-12-15T15:16:13.975Z,56.91
2022-12-15T15:18:42.361Z,57.41
2022-12-15T15:21:16.882Z,57.39
2022-12-15T15:24:00.998Z,56.96
2022-12-15T15:26:29.283Z,57.14
2022-12-15T15:28:56.056Z,57.28
2022-12-15T15:31:27.231Z,57.51
2022-12-15T15:33:58.993Z,57.48
2022-12-15T15:36:37.354Z,57.44
2022-12-15T15:39:15.488Z,57.40
2022-12-15T15:41:42.533Z,57.79
2022-12-15T15:44:14.546Z,58.84
2022-12-15T15:46:51.951Z,58.72
2022-12-15T15:49:21.647Z,59.00
2022-12-15T15:51:48.964Z,58.69
2022-12-15T15:54:23.482Z,58.09
2022-12-15T15:56:50.262Z,58.77
2022-12-15T15:59:20.981Z,58.33
2022-12-15T16:01:54.384Z,58.24
2022-12-15T16:04:22.177Z,58.08
2022-12-15T16:06:49.618Z,58.25
2022-12-15T16:09:17.004Z,58.11
2022-12-15T16:11:45.707Z,57.58
2022-12-15T16:14:14.376Z,57.58
2022-12-15T16:16:41.877Z,57.53
2022-12-15T16:19:09.001Z,57.35
2022-12-15T16:21:36.189Z,57.72
2022-12-15T16:24:10.971Z,58.09
2022-12-15T16:26:38.873Z,57.97
2022-12-15T16:29:14.730Z,58.26
2022-12-15T16:31:45.364Z,57.86
2022-12-15T16:34:13.335Z,58.32
2022-12-15T16:36:40.660Z,57.56
2022-12-15T16:39:36.795Z,57.41
2022-12-15T16:42:04.037Z,57.22
2022-12-15T16:44:30.815Z,57.42
2022-12-15T16:46:58.744Z,56.84
2022-12-15T16:49:26.587Z,57.33
2022-12-15T16:51:54.044Z,56.89
2022-12-15T16:54:25.249Z,57.04
2022-12-15T16:56:54.009Z,56.83
2022-12-15T16:59:39.146Z,56.47
2022-12-15T17:02:29.454Z,56.15
2022-12-15T17:04:56.360Z,56.36
2022-12-15T17:07:26.234Z,56.12
2022-12-15T17:09:53.071Z,56.41
2022-12-15T17:12:19.897Z,56.64
2022-12-15T17:14:46.849Z,57.03
2022-12-15T17:17:15.452Z,57.47
2022-12-15T17:20:11.647Z,57.52
2022-12-15T17:22:32.688Z,57.99
2022-12-15T17:24:59.366Z,58.17
2022-12-15T17:27:28.267Z,58.28
2022-12-15T17:29:58.002Z,58.46
2022-12-15T17:32:24.687Z,58.40
2022-12-15T17:34:51.929Z,58.62
2022-12-15T17:37:18.859Z,58.49
2022-12-15T17:39:50.713Z,58.52
2022-12-15T17:42:22.171Z,58.16
2022-12-15T17:44:49.238Z,58.25
2022-12-15T17:47:18.640Z,58.27
2022-12-15T17:49:46.877Z,57.97
2022-12-15T17:52:26.111Z,57.85
2022-12-15T17:54:53.587Z,58.03
2022-12-15T17:57:20.686Z,57.84
2022-12-15T17:59:48.028Z,58.21
2022-12-15T18:02:15.546Z,57.83
2022-12-15T18:04:43.477Z,57.71
2022-12-15T18:07:17.035Z,57.78
2022-12-15T18:09:44.066Z,57.67
2022-12-15T18:12:23.334Z,57.44
2022-12-15T18:14:50.650Z,57.64
2022-12-15T18:17:17.392Z,57.66
2022-12-15T18:19:44.927Z,57.43
2022-12-15T18:22:15.217Z,57.45
2022-12-15T18:24:42.211Z,58.21
2022-12-15T18:27:19.654Z,58.06
2022-12-15T18:29:46.371Z,57.52
2022-12-15T18:32:13.177Z,57.21
2022-12-15T18:34:39.784Z,57.17
2022-12-15T18:37:15.139Z,57.09
2022-12-15T18:39:41.830Z,57.47
2022-12-15T18:42:14.717Z,57.60
2022-12-15T18:44:45.830Z,57.41
2022-12-15T18:47:23.497Z,57.31
2022-12-15T18:49:50.548Z,57.72
2022-12-15T18:52:21.462Z,57.40
2022-12-15T18:54:50.283Z,56.94
2022-12-15T18:57:35.776Z,57.36
2022-12-15T19:00:16.452Z,57.26
2022-12-15T19:02:43.345Z,57.34
2022-12-15T19:05:27.550Z,57.01
2022-12-15T19:08:01.507Z,56.97
2022-12-15T19:10:31.830Z,56.86
2022-12-15T19:12:58.980Z,56.84
2022-12-15T19:15:25.901Z,57.13
2022-12-15T19:18:11.610Z,56.98
2022-12-15T19:20:57.514Z,56.89
2022-12-15T19:23:24.401Z,56.64
2022-12-15T19:25:52.903Z,56.81
2022-12-15T19:28:24.333Z,56.73
2022-12-15T19:30:52.130Z,56.91
2022-12-15T19:33:19.943Z,57.06
2022-12-15T19:35:50.934Z,56.89
2022-12-15T19:38:25.411Z,57.00
2022-12-15T19:40:55.008Z,57.47
2022-12-15T19:43:23.540Z,57.36
2022-12-15T19:45:52.022Z,57.19
2022-12-15T19:48:23.845Z,58.12
2022-12-15T19:50:52.359Z,58.64
2022-12-15T19:53:24.038Z,59.06
2022-12-15T19:55:53.636Z,58.92
2022-12-15T19:58:34.127Z,58.68
2022-12-15T20:01:05.561Z,58.60
2022-12-15T20:03:33.551Z,58.62
2022-12-15T20:06:02.093Z,58.50
2022-12-15T20:08:34.311Z,58.35
2022-12-15T20:11:01.149Z,58.23
2022-12-15T20:13:27.795Z,58.39
2022-12-15T20:15:55.277Z,58.24
2022-12-15T20:18:22.140Z,58.13
2022-12-15T20:20:49.608Z,58.22
2022-12-15T20:23:25.971Z,58.24
2022-12-15T20:25:53.961Z,57.82
2022-12-15T20:28:28.437Z,57.81
2022-12-15T20:30:56.524Z,57.96
2022-12-15T20:33:23.205Z,58.04
2022-12-15T20:35:50.712Z,57.88
2022-12-15T20:38:23.489Z,57.74
2022-12-15T20:40:50.641Z,57.96
2022-12-15T20:43:20.481Z,58.00
2022-12-15T20:45:54.706Z,57.78
2022-12-15T20:48:24.802Z,58.37
2022-12-15T20:50:53.890Z,58.39
2022-12-15T20:53:23.948Z,58.92
2022-12-15T20:55:52.731Z,59.17
2022-12-15T20:58:20.412Z,59.35
2022-12-15T21:00:51.959Z,59.39
2022-12-15T21:03:20.680Z,58.84
2022-12-15T21:05:49.003Z,59.40
2022-12-15T21:08:19.308Z,58.99
2022-12-15T21:10:46.464Z,59.33
2022-12-15T21:13:17.840Z,59.47
2022-12-15T21:15:44.577Z,58.85
2022-12-15T21:18:51.885Z,58.82
2022-12-15T21:20:59.247Z,59.00
2022-12-15T21:23:29.356Z,58.74
2022-12-15T21:25:57.791Z,59.13
2022-12-15T21:28:25.435Z,59.29
2022-12-15T21:30:52.245Z,59.40
2022-12-15T21:33:18.995Z,59.24
2022-12-15T21:35:47.321Z,59.08
2022-12-15T21:38:28.420Z,58.93
2022-12-15T21:41:04.970Z,59.32
2022-12-15T21:43:34.872Z,59.06
2022-12-15T21:46:04.249Z,59.06
2022-12-15T21:48:49.652Z,58.96
2022-12-15T21:51:17.430Z,59.17
2022-12-15T21:53:46.001Z,58.90
2022-12-15T21:56:17.261Z,58.99
2022-12-15T21:58:51.404Z,58.77
2022-12-15T22:01:24.838Z,58.71
2022-12-15T22:03:54.614Z,58.46
2022-12-15T22:06:26.900Z,58.36
2022-12-15T22:08:55.210Z,58.76
2022-12-15T22:11:24.960Z,58.80
2022-12-15T22:13:53.218Z,58.88
2022-12-15T22:16:22.697Z,58.29
2022-12-15T22:18:53.201Z,58.77
2022-12-15T22:21:22.337Z,58.50
2022-12-15T22:23:50.693Z,58.51
2022-12-15T22:26:31.393Z,58.64
2022-12-15T22:29:02.879Z,58.72
2022-12-15T22:31:29.701Z,58.38
2022-12-15T22:33:56.434Z,58.30
2022-12-15T22:36:24.243Z,58.51
2022-12-15T22:38:50.955Z,59.01
2022-12-15T22:41:20.549Z,58.52
2022-12-15T22:43:51.981Z,58.50
2022-12-15T22:46:21.122Z,58.76
2022-12-15T22:48:47.984Z,58.61
2022-12-15T22:51:16.919Z,58.38
2022-12-15T22:53:43.869Z,58.80
2022-12-15T22:56:36.541Z,58.92
2022-12-15T22:59:07.209Z,58.93
2022-12-15T23:01:34.519Z,58.72
2022-12-15T23:04:01.201Z,59.18
2022-12-15T23:06:28.239Z,58.64
2022-12-15T23:08:56.249Z,58.74
2022-12-15T23:11:38.579Z,58.98
2022-12-15T23:14:08.291Z,58.86
2022-12-15T23:16:35.329Z,59.21
2022-12-15T23:19:02.323Z,58.80
2022-12-15T23:21:29.811Z,58.90
2022-12-15T23:23:57.782Z,59.09
2022-12-15T23:26:25.791Z,58.73
2022-12-15T23:28:53.582Z,58.93
2022-12-15T23:31:22.380Z,58.78
2022-12-15T23:33:49.887Z,58.51
2022-12-15T23:36:18.909Z,58.33
2022-12-15T23:38:46.098Z,58.28
2022-12-15T23:41:17.493Z,57.95
2022-12-15T23:43:44.241Z,57.79
2022-12-15T23:46:11.010Z,57.68
2022-12-15T23:48:43.036Z,57.63
2022-12-15T23:51:12.440Z,57.82
2022-12-15T23:53:40.227Z,57.28
2022-12-15T23:56:14.788Z,56.72
2022-12-15T23:58:43.052Z,56.27
